Humidity-temperature Sensor

Selected Measurement Type: Relative Humidity

 
Relative Humidity [%]     6 entries per hour
Showing data from 9/18/2019 (00:00:00 Z) to 9/11/2019 (00:01:00 Z)
Previous Next [ Day | 3-Days | 7-Days ]
First Last
Prev [ Day | 3-Days | 7-Days ] Next
First Last

Start Time:     :
End Time:     :     
Time (in GMT) :00 :50 :40 :30 :20 :10
Previous Next [ Day | 3-Days | 7-Days ]
First Last
Prev [ Day | 3-Days | 7-Days ] Next
First Last


123 => good data
MM => data is determined as missing
-- => data not received/configured
Back to Top Back to Top
9/18/2019 00:00 to 23:10 70.95 70.93 71.61 71.26 71.07 70.79
9/17/2019 23:00 to 22:10 71.77 70.42 70.50 68.51 68.25 68.76
9/17/2019 22:00 to 21:10 69.74 68.45 68.57 68.33 70.77 70.56
9/17/2019 21:00 to 20:10 71.79 72.88 72.10 71.97 72.44 72.20
9/17/2019 20:00 to 19:10 71.48 72.16 72.20 72.01 71.15 73.37
9/17/2019 19:00 to 18:10 73.30 72.85 73.24 71.81 71.99 73.69
9/17/2019 18:00 to 17:10 72.18 72.22 71.22 70.52 71.95 71.75
9/17/2019 17:00 to 16:10 72.44 72.92 72.63 73.94 74.62 73.31
9/17/2019 16:00 to 15:10 71.75 71.20 73.04 73.39 72.20 73.00
9/17/2019 15:00 to 14:10 72.30 71.28 72.63 70.64 72.22 72.22
9/17/2019 14:00 to 13:10 72.34 73.08 72.92 73.47 72.67 72.20
9/17/2019 13:00 to 12:10 71.16 71.58 72.79 74.39 72.32 72.18
9/17/2019 12:00 to 11:10 72.71 73.20 73.39 73.12 73.49 72.55
9/17/2019 11:00 to 10:10 74.86 72.36 72.47 72.79 73.90 73.28
9/17/2019 10:00 to 9:10 73.94 74.66 75.03 74.59 72.49 73.41
9/17/2019 09:00 to 8:10 74.72 72.22 73.96 73.88 73.90 74.25
9/17/2019 08:00 to 7:10 72.20 72.14 72.73 73.63 71.71 73.59
9/17/2019 07:00 to 6:10 74.04 72.40 73.47 72.06 72.26 73.57
9/17/2019 06:00 to 5:10 72.87 71.46 72.94 71.56 73.00 74.10
9/17/2019 05:00 to 4:10 72.87 73.31 72.79 72.44 72.49 71.56
9/17/2019 04:00 to 3:10 71.77 71.99 73.39 73.06 73.06 72.69
9/17/2019 03:00 to 2:10 72.24 72.32 71.71 73.10 73.33 73.37
9/17/2019 02:00 to 1:10 72.67 72.18 74.49 73.14 74.82 72.98
9/17/2019 01:00 to 0:10 73.82 74.53 74.04 75.84 74.27 73.86
9/17/2019 00:00 to 23:10 74.92 74.57 74.84 74.25 73.86 75.64
9/16/2019 23:00 to 22:10 75.07 74.19 75.41 76.91 76.79 77.13
9/16/2019 22:00 to 21:10 76.77 74.62 75.84 75.27 74.27 75.97
9/16/2019 21:00 to 20:10 75.13 75.19 76.05 75.84 77.65 75.70
9/16/2019 20:00 to 19:10 75.15 76.01 74.29 74.14 71.87 73.37
9/16/2019 19:00 to 18:10 72.87 74.60 75.25 76.09 75.07 75.66
9/16/2019 18:00 to 17:10 75.00 75.17 74.21 75.33 73.88 73.45
9/16/2019 17:00 to 16:10 73.86 74.84 75.66 75.58 75.93 76.70
9/16/2019 16:00 to 15:10 75.25 76.32 76.52 76.81 75.02 72.81
9/16/2019 15:00 to 14:10 72.32 74.82 73.30 74.37 75.74 75.50
9/16/2019 14:00 to 13:10 75.78 75.35 74.17 74.96 74.53 74.12
9/16/2019 13:00 to 12:10 74.92 75.09 74.68 75.68 75.68 75.31
9/16/2019 12:00 to 11:10 74.78 76.54 76.74 76.72 76.64 77.75
9/16/2019 11:00 to 10:10 76.79 76.13 76.01 76.87 76.66 76.79
9/16/2019 10:00 to 9:10 76.54 77.28 77.54 77.50 76.95 78.36
9/16/2019 09:00 to 8:10 79.02 79.63 79.92 79.63 80.06 80.04
9/16/2019 08:00 to 7:10 80.98 81.00 81.74 81.19 81.43 81.50
9/16/2019 07:00 to 6:10 81.19 82.52 81.46 81.37 81.48 81.25
9/16/2019 06:00 to 5:10 81.86 80.51 82.44 82.40 81.72 81.48
9/16/2019 05:00 to 4:10 82.54 82.83 82.87 82.32 82.50 84.40
9/16/2019 04:00 to 3:10 85.88 84.30 81.84 83.52 83.81 84.08
9/16/2019 03:00 to 2:10 83.30 83.34 85.55 86.02 86.47 84.75
9/16/2019 02:00 to 1:10 84.71 84.24 82.99 83.91 83.17 83.03
9/16/2019 01:00 to 0:10 82.81 82.54 81.41 82.13 81.31 82.21
9/16/2019 00:00 to 23:10 82.09 81.80 81.72 80.64 80.94 81.84
9/15/2019 23:00 to 22:10 81.48 80.29 80.21 81.58 81.43 81.00
9/15/2019 22:00 to 21:10 80.31 80.66 80.29 80.43 80.78 79.59
9/15/2019 21:00 to 20:10 79.86 79.63 80.51 80.35 80.88 80.51
9/15/2019 20:00 to 19:10 80.41 79.80 80.72 81.15 81.82 81.37
9/15/2019 19:00 to 18:10 80.74 81.62 80.60 80.62 79.45 78.92
9/15/2019 18:00 to 17:10 78.69 79.18 80.31 79.69 79.67 79.82
9/15/2019 17:00 to 16:10 79.67 79.69 80.66 79.14 80.82 80.70
9/15/2019 16:00 to 15:10 80.53 79.90 80.76 81.66 81.02 81.43
9/15/2019 15:00 to 14:10 80.98 80.37 81.45 79.49 80.70 82.44
9/15/2019 14:00 to 13:10 80.64 81.89 83.28 82.70 82.13 83.20
9/15/2019 13:00 to 12:10 82.93 82.70 80.76 82.11 81.27 80.43
9/15/2019 12:00 to 11:10 82.07 82.56 84.34 82.25 82.70 84.18
9/15/2019 11:00 to 10:10 81.29 84.55 82.54 83.40 82.62 84.22
9/15/2019 10:00 to 9:10 83.30 83.44 84.73 88.09 86.55 84.77
9/15/2019 09:00 to 8:10 85.04 87.04 89.11 89.15 86.59 86.78
9/15/2019 08:00 to 7:10 87.33 86.80 84.18 83.83 83.32 85.22
9/15/2019 07:00 to 6:10 86.68 83.91 83.97 87.27 84.79 83.99
9/15/2019 06:00 to 5:10 84.53 84.57 85.45 85.20 84.57 86.12
9/15/2019 05:00 to 4:10 85.37 83.54 84.40 86.47 86.98 87.02
9/15/2019 04:00 to 3:10 85.10 84.69 85.76 85.67 85.63 85.80
9/15/2019 03:00 to 2:10 85.73 86.57 86.16 86.04 85.14 83.85
9/15/2019 02:00 to 1:10 84.75 84.69 85.28 84.14 84.63 84.79
9/15/2019 01:00 to 0:10 84.98 83.83 84.75 85.14 85.57 86.00
9/15/2019 00:00 to 23:10 84.89 86.64 85.96 85.47 85.51 86.64
9/14/2019 23:00 to 22:10 84.22 84.87 84.81 84.92 84.94 84.34
9/14/2019 22:00 to 21:10 84.18 83.79 84.89 84.75 83.97 84.16
9/14/2019 21:00 to 20:10 85.84 86.29 84.85 84.01 85.61 82.75
9/14/2019 20:00 to 19:10 84.46 84.92 84.63 83.71 81.07 81.97
9/14/2019 19:00 to 18:10 83.11 81.97 83.07 82.23 82.15 83.34
9/14/2019 18:00 to 17:10 83.44 83.22 84.83 86.12 85.59 85.12
9/14/2019 17:00 to 16:10 84.63 83.52 84.61 84.67 84.96 87.11
9/14/2019 16:00 to 15:10 85.41 83.79 84.06 86.08 85.18 89.18
9/14/2019 15:00 to 14:10 89.99 85.30 85.73 86.00 88.36 88.46
9/14/2019 14:00 to 13:10 88.70 88.40 89.01 87.27 87.52 89.34
9/14/2019 13:00 to 12:10 90.16 87.58 89.52 90.65 90.49 90.96
9/14/2019 12:00 to 11:10 92.02 93.09 92.61 92.39 93.62 89.87
9/14/2019 11:00 to 10:10 90.59 89.15 87.82 89.24 94.09 89.75
9/14/2019 10:00 to 9:10 89.97 89.48 88.52 87.70 87.99 86.92
9/14/2019 09:00 to 8:10 85.14 85.53 85.69 86.06 87.47 84.87
9/14/2019 08:00 to 7:10 86.61 87.43 86.04 85.57 84.24 83.60
9/14/2019 07:00 to 6:10 85.37 85.32 85.32 83.85 84.94 86.94
9/14/2019 06:00 to 5:10 87.27 86.55 88.13 88.93 89.11 87.41
9/14/2019 05:00 to 4:10 86.12 87.05 87.86 89.50 90.38 88.07
9/14/2019 04:00 to 3:10 87.95 87.76 91.02 88.23 87.80 85.90
9/14/2019 03:00 to 2:10 87.21 91.26 92.19 93.07 92.06 87.37
9/14/2019 02:00 to 1:10 85.59 88.01 87.84 92.47 93.11 94.19
9/14/2019 01:00 to 0:10 90.10 90.90 92.68 89.13 86.16 86.57
9/14/2019 00:00 to 23:10 89.11 90.04 89.97 88.81 90.44 90.06
9/13/2019 23:00 to 22:10 89.17 88.68 93.29 94.09 91.35 91.69
9/13/2019 22:00 to 21:10 88.66 88.75 89.81 88.87 89.77 92.94
9/13/2019 21:00 to 20:10 93.82 93.02 91.16 90.44 85.69 86.61
9/13/2019 20:00 to 19:10 87.56 86.27 87.17 83.18 83.15 83.89
9/13/2019 19:00 to 18:10 83.38 82.50 83.58 83.83 82.95 83.26
9/13/2019 18:00 to 17:10 83.44 84.81 84.30 87.11 86.82 87.23
9/13/2019 17:00 to 16:10 88.79 88.23 88.40 89.17 89.54 87.05
9/13/2019 16:00 to 15:10 83.28 86.06 87.05 88.21 88.72 89.34
9/13/2019 15:00 to 14:10 86.57 86.84 89.71 90.71 88.66 88.64
9/13/2019 14:00 to 13:10 87.47 85.26 85.61 85.08 84.63 85.67
9/13/2019 13:00 to 12:10 85.57 87.43 88.77 86.98 84.26 83.85
9/13/2019 12:00 to 11:10 86.16 86.68 87.41 86.18 86.27 84.67
9/13/2019 11:00 to 10:10 83.93 83.67 84.69 84.30 84.38 84.96
9/13/2019 10:00 to 9:10 86.23 87.00 87.23 86.86 86.39 86.53
9/13/2019 09:00 to 8:10 86.06 86.27 86.21 84.55 85.00 84.55
9/13/2019 08:00 to 7:10 86.00 85.63 85.73 84.51 83.54 84.46
9/13/2019 07:00 to 6:10 86.80 85.59 84.46 84.71 83.93 84.87
9/13/2019 06:00 to 5:10 85.82 85.43 84.46 85.49 84.94 84.59
9/13/2019 05:00 to 4:10 84.77 85.32 85.59 85.92 84.32 84.57
9/13/2019 04:00 to 3:10 85.53 85.41 84.90 83.56 83.99 85.41
9/13/2019 03:00 to 2:10 84.30 83.87 83.85 84.46 84.77 84.30
9/13/2019 02:00 to 1:10 83.73 84.28 84.32 83.95 83.99 84.90
9/13/2019 01:00 to 0:10 85.22 84.87 85.20 85.32 85.32 86.02
9/13/2019 00:00 to 23:10 84.94 84.71 86.29 86.51 85.43 85.28
9/12/2019 23:00 to 22:10 85.20 86.74 85.51 84.90 85.35 85.28
9/12/2019 22:00 to 21:10 85.14 84.26 84.40 84.03 85.06 85.47
9/12/2019 21:00 to 20:10 84.77 85.22 84.12 83.83 83.60 84.12
9/12/2019 20:00 to 19:10 84.24 84.46 85.12 85.98 84.79 85.04
9/12/2019 19:00 to 18:10 86.04 86.10 88.72 89.01 89.28 89.03
9/12/2019 18:00 to 17:10 88.75 88.17 88.42 88.66 90.53 89.95
9/12/2019 17:00 to 16:10 90.69 91.76 93.86 92.35 92.49 88.72
9/12/2019 16:00 to 15:10 88.95 90.44 89.50 88.21 87.37 88.75
9/12/2019 15:00 to 14:10 91.06 93.43 92.96 92.78 90.14 91.00
9/12/2019 14:00 to 13:10 92.00 91.92 91.20 91.39 93.04 89.65
9/12/2019 13:00 to 12:10 89.58 90.16 90.06 90.16 90.16 91.22
9/12/2019 12:00 to 11:10 93.04 93.72 94.31 94.07 94.21 95.38
9/12/2019 11:00 to 10:10 95.85 96.16 95.79 96.26 96.46 96.18
9/12/2019 10:00 to 9:10 95.30 94.64 95.03 95.01 95.52 95.91
9/12/2019 09:00 to 8:10 95.11 94.70 93.82 92.76 90.28 90.94
9/12/2019 08:00 to 7:10 91.08 91.84 91.67 92.35 93.64 93.97
9/12/2019 07:00 to 6:10 93.99 94.25 95.56 95.60 95.65 95.07
9/12/2019 06:00 to 5:10 93.95 93.99 95.11 95.52 94.09 92.23
9/12/2019 05:00 to 4:10 93.64 94.13 94.56 94.70 93.48 91.73
9/12/2019 04:00 to 3:10 89.95 88.85 88.25 89.67 90.42 89.24
9/12/2019 03:00 to 2:10 86.51 85.78 85.57 87.13 85.94 85.02
9/12/2019 02:00 to 1:10 84.40 84.75 85.02 86.14 85.59 85.63
9/12/2019 01:00 to 0:10 85.96 86.53 87.39 87.56 86.92 86.86
9/12/2019 00:00 to 23:10 86.14 86.41 86.25 85.90 86.21 85.37
9/11/2019 23:00 to 22:10 85.26 85.33 85.96 85.71 84.94 86.39
9/11/2019 22:00 to 21:10 86.12 86.37 85.47 86.37 85.12 85.67
9/11/2019 21:00 to 20:10 85.24 85.57 85.39 84.01 84.36 83.71
9/11/2019 20:00 to 19:10 83.67 83.83 83.17 83.63 84.46 84.67
9/11/2019 19:00 to 18:10 83.28 82.44 82.15 81.99 82.34 81.66
9/11/2019 18:00 to 17:10 80.59 81.27 82.25 81.97 82.50 82.91
9/11/2019 17:00 to 16:10 83.89 85.24 88.44 90.98 92.68 93.66
9/11/2019 16:00 to 15:10 94.05 93.15 92.49 93.23 93.47 93.58
9/11/2019 15:00 to 14:10 93.68 93.86 93.72 93.13 91.94 88.62
9/11/2019 14:00 to 13:10 85.20 85.71 86.74 87.90 88.13 86.90
9/11/2019 13:00 to 12:10 86.74 87.27 87.29 87.43 88.56 88.79
9/11/2019 12:00 to 11:10 87.78 88.34 88.97 89.22 87.62 87.00
9/11/2019 11:00 to 10:10 85.76 85.63 86.06 84.30 84.69 85.57
9/11/2019 10:00 to 9:10 85.71 86.33 85.76 85.88 86.49 85.78
9/11/2019 09:00 to 8:10 84.59 85.45 85.12 86.80 87.02 88.66
9/11/2019 08:00 to 7:10 89.50 85.78 86.47 87.47 86.68 86.88
9/11/2019 07:00 to 6:10 86.00 86.45 86.76 85.35 86.59 87.86
9/11/2019 06:00 to 5:10 87.76 86.74 87.23 88.58 89.85 90.24
9/11/2019 05:00 to 4:10 91.55 90.90 90.38 89.81 87.35 85.67
9/11/2019 04:00 to 3:10 82.99 83.91 84.12 84.38 84.94 85.98
9/11/2019 03:00 to 2:10 86.68 85.80 84.42 84.98 82.29 83.15
9/11/2019 02:00 to 1:10 83.97 86.06 84.49 84.77 84.51 86.78
9/11/2019 01:00 to 0:10 87.00 87.21 87.09 87.07 87.41 85.73